sensor_id;sensor_type;location;lat;lon;timestamp;temperature;humidity
6206;DHT22;3136;48.788;9.772;2023-04-24T00:00:16;9.60;1.00
6206;DHT22;3136;48.788;9.772;2023-04-24T00:02:43;9.60;1.00
6206;DHT22;3136;48.788;9.772;2023-04-24T00:05:15;9.50;1.00
6206;DHT22;3136;48.788;9.772;2023-04-24T00:07:41;9.50;1.00
6206;DHT22;3136;48.788;9.772;2023-04-24T00:10:08;9.50;1.00
6206;DHT22;3136;48.788;9.772;2023-04-24T00:12:34;9.40;1.00
6206;DHT22;3136;48.788;9.772;2023-04-24T00:15:00;9.40;1.00
6206;DHT22;3136;48.788;9.772;2023-04-24T00:17:25;9.40;1.00
6206;DHT22;3136;48.788;9.772;2023-04-24T00:19:51;9.30;1.00
6206;DHT22;3136;48.788;9.772;2023-04-24T00:22:26;9.40;1.00
6206;DHT22;3136;48.788;9.772;2023-04-24T00:24:51;9.40;1.00
6206;DHT22;3136;48.788;9.772;2023-04-24T00:27:17;9.30;1.00
6206;DHT22;3136;48.788;9.772;2023-04-24T00:29:42;9.40;1.00
6206;DHT22;3136;48.788;9.772;2023-04-24T00:32:08;9.40;1.00
6206;DHT22;3136;48.788;9.772;2023-04-24T00:34:33;9.40;1.00
6206;DHT22;3136;48.788;9.772;2023-04-24T00:36:59;9.40;1.00
6206;DHT22;3136;48.788;9.772;2023-04-24T00:39:25;9.50;1.10
6206;DHT22;3136;48.788;9.772;2023-04-24T00:41:51;9.40;1.80
6206;DHT22;3136;48.788;9.772;2023-04-24T00:44:17;9.40;1.20
6206;DHT22;3136;48.788;9.772;2023-04-24T00:46:43;9.40;1.30
6206;DHT22;3136;48.788;9.772;2023-04-24T00:49:09;9.40;2.60
6206;DHT22;3136;48.788;9.772;2023-04-24T00:51:34;9.50;4.70
6206;DHT22;3136;48.788;9.772;2023-04-24T00:54:03;9.50;5.00
6206;DHT22;3136;48.788;9.772;2023-04-24T00:56:29;9.50;5.40
6206;DHT22;3136;48.788;9.772;2023-04-24T00:58:55;9.50;6.30
6206;DHT22;3136;48.788;9.772;2023-04-24T01:01:21;9.50;6.90
6206;DHT22;3136;48.788;9.772;2023-04-24T01:03:49;9.50;7.40
6206;DHT22;3136;48.788;9.772;2023-04-24T01:06:16;9.50;8.10
6206;DHT22;3136;48.788;9.772;2023-04-24T01:08:42;9.50;9.40
6206;DHT22;3136;48.788;9.772;2023-04-24T01:11:08;9.50;9.40
6206;DHT22;3136;48.788;9.772;2023-04-24T01:13:34;9.50;9.30
6206;DHT22;3136;48.788;9.772;2023-04-24T01:16:00;9.50;8.70
6206;DHT22;3136;48.788;9.772;2023-04-24T01:18:26;9.50;9.50
6206;DHT22;3136;48.788;9.772;2023-04-24T01:20:54;9.50;10.20
6206;DHT22;3136;48.788;9.772;2023-04-24T01:23:22;9.50;11.20
6206;DHT22;3136;48.788;9.772;2023-04-24T01:25:49;9.50;11.50
6206;DHT22;3136;48.788;9.772;2023-04-24T01:28:15;9.50;11.00
6206;DHT22;3136;48.788;9.772;2023-04-24T01:30:41;9.50;9.70
6206;DHT22;3136;48.788;9.772;2023-04-24T01:33:06;9.50;9.60
6206;DHT22;3136;48.788;9.772;2023-04-24T01:35:32;9.40;9.70
6206;DHT22;3136;48.788;9.772;2023-04-24T01:37:58;9.40;10.40
6206;DHT22;3136;48.788;9.772;2023-04-24T01:40:23;9.50;12.20
6206;DHT22;3136;48.788;9.772;2023-04-24T01:42:49;9.50;13.40
6206;DHT22;3136;48.788;9.772;2023-04-24T01:45:15;10.80;12.70
6206;DHT22;3136;48.788;9.772;2023-04-24T01:47:41;9.40;12.00
6206;DHT22;3136;48.788;9.772;2023-04-24T01:50:07;9.40;13.00
6206;DHT22;3136;48.788;9.772;2023-04-24T01:52:33;9.40;14.50
6206;DHT22;3136;48.788;9.772;2023-04-24T01:55:00;9.40;15.10
6206;DHT22;3136;48.788;9.772;2023-04-24T01:57:26;9.40;15.60
6206;DHT22;3136;48.788;9.772;2023-04-24T01:59:52;9.40;16.40
6206;DHT22;3136;48.788;9.772;2023-04-24T02:02:17;9.50;17.40
6206;DHT22;3136;48.788;9.772;2023-04-24T02:04:43;9.40;18.40
6206;DHT22;3136;48.788;9.772;2023-04-24T02:07:09;9.40;17.70
6206;DHT22;3136;48.788;9.772;2023-04-24T02:09:34;10.10;17.00
6206;DHT22;3136;48.788;9.772;2023-04-24T02:12:00;9.40;17.80
6206;DHT22;3136;48.788;9.772;2023-04-24T02:14:26;9.40;19.10
6206;DHT22;3136;48.788;9.772;2023-04-24T02:16:51;9.40;20.10
6206;DHT22;3136;48.788;9.772;2023-04-24T02:19:17;9.40;19.40
6206;DHT22;3136;48.788;9.772;2023-04-24T02:21:42;9.40;18.70
6206;DHT22;3136;48.788;9.772;2023-04-24T02:24:08;9.40;17.20
6206;DHT22;3136;48.788;9.772;2023-04-24T02:26:33;9.30;16.40
6206;DHT22;3136;48.788;9.772;2023-04-24T02:28:59;9.30;15.50
6206;DHT22;3136;48.788;9.772;2023-04-24T02:31:25;9.20;14.70
6206;DHT22;3136;48.788;9.772;2023-04-24T02:33:51;9.20;13.90
6206;DHT22;3136;48.788;9.772;2023-04-24T02:36:16;9.20;14.00
6206;DHT22;3136;48.788;9.772;2023-04-24T02:38:42;9.20;14.20
6206;DHT22;3136;48.788;9.772;2023-04-24T02:41:07;9.10;14.40
6206;DHT22;3136;48.788;9.772;2023-04-24T02:43:33;9.10;15.60
6206;DHT22;3136;48.788;9.772;2023-04-24T02:45:59;9.10;16.00
6206;DHT22;3136;48.788;9.772;2023-04-24T02:48:25;9.10;16.70
6206;DHT22;3136;48.788;9.772;2023-04-24T02:50:50;9.00;16.90
6206;DHT22;3136;48.788;9.772;2023-04-24T02:53:16;9.00;16.40
6206;DHT22;3136;48.788;9.772;2023-04-24T02:55:42;9.10;17.50
6206;DHT22;3136;48.788;9.772;2023-04-24T02:58:08;9.00;18.70
6206;DHT22;3136;48.788;9.772;2023-04-24T03:00:33;9.00;20.50
6206;DHT22;3136;48.788;9.772;2023-04-24T03:02:59;9.10;24.00
6206;DHT22;3136;48.788;9.772;2023-04-24T03:05:25;9.10;26.40
6206;DHT22;3136;48.788;9.772;2023-04-24T03:07:50;9.10;25.80
6206;DHT22;3136;48.788;9.772;2023-04-24T03:10:18;9.10;24.10
6206;DHT22;3136;48.788;9.772;2023-04-24T03:12:43;9.10;24.00
6206;DHT22;3136;48.788;9.772;2023-04-24T03:15:09;9.00;24.50
6206;DHT22;3136;48.788;9.772;2023-04-24T03:17:35;9.10;25.60
6206;DHT22;3136;48.788;9.772;2023-04-24T03:20:01;9.10;27.30
6206;DHT22;3136;48.788;9.772;2023-04-24T03:22:26;9.10;29.20
6206;DHT22;3136;48.788;9.772;2023-04-24T03:24:52;9.10;29.90
6206;DHT22;3136;48.788;9.772;2023-04-24T03:27:17;9.10;29.60
6206;DHT22;3136;48.788;9.772;2023-04-24T03:29:43;9.10;29.10
6206;DHT22;3136;48.788;9.772;2023-04-24T03:32:08;9.10;28.10
6206;DHT22;3136;48.788;9.772;2023-04-24T03:34:34;9.10;28.50
6206;DHT22;3136;48.788;9.772;2023-04-24T03:37:00;9.10;29.10
6206;DHT22;3136;48.788;9.772;2023-04-24T03:39:25;9.10;30.20
6206;DHT22;3136;48.788;9.772;2023-04-24T03:41:51;9.10;31.10
6206;DHT22;3136;48.788;9.772;2023-04-24T03:44:16;9.20;32.00
6206;DHT22;3136;48.788;9.772;2023-04-24T03:46:42;9.20;32.10
6206;DHT22;3136;48.788;9.772;2023-04-24T03:49:08;9.20;32.20
6206;DHT22;3136;48.788;9.772;2023-04-24T03:51:34;9.30;33.90
6206;DHT22;3136;48.788;9.772;2023-04-24T03:54:00;9.30;34.30
6206;DHT22;3136;48.788;9.772;2023-04-24T03:56:26;9.20;33.40
6206;DHT22;3136;48.788;9.772;2023-04-24T03:58:51;9.20;32.80
6206;DHT22;3136;48.788;9.772;2023-04-24T04:01:17;9.20;33.30
6206;DHT22;3136;48.788;9.772;2023-04-24T04:03:44;8.40;33.30
6206;DHT22;3136;48.788;9.772;2023-04-24T04:06:10;9.30;34.30
6206;DHT22;3136;48.788;9.772;2023-04-24T04:08:36;9.30;33.90
6206;DHT22;3136;48.788;9.772;2023-04-24T04:11:02;9.30;34.20
6206;DHT22;3136;48.788;9.772;2023-04-24T04:13:27;9.30;34.80
6206;DHT22;3136;48.788;9.772;2023-04-24T04:15:53;9.30;34.70
6206;DHT22;3136;48.788;9.772;2023-04-24T04:18:21;9.30;32.50
6206;DHT22;3136;48.788;9.772;2023-04-24T04:20:46;9.20;30.70
6206;DHT22;3136;48.788;9.772;2023-04-24T04:23:12;9.20;30.20
6206;DHT22;3136;48.788;9.772;2023-04-24T04:25:37;9.20;30.80
6206;DHT22;3136;48.788;9.772;2023-04-24T04:28:03;9.20;31.50
6206;DHT22;3136;48.788;9.772;2023-04-24T04:30:29;9.20;31.30
6206;DHT22;3136;48.788;9.772;2023-04-24T04:32:58;9.20;31.60
6206;DHT22;3136;48.788;9.772;2023-04-24T04:35:24;9.20;31.30
6206;DHT22;3136;48.788;9.772;2023-04-24T04:37:50;9.20;29.70
6206;DHT22;3136;48.788;9.772;2023-04-24T04:40:16;9.10;28.30
6206;DHT22;3136;48.788;9.772;2023-04-24T04:42:42;9.10;27.10
6206;DHT22;3136;48.788;9.772;2023-04-24T04:45:11;9.10;27.90
6206;DHT22;3136;48.788;9.772;2023-04-24T04:47:36;9.10;30.00
6206;DHT22;3136;48.788;9.772;2023-04-24T04:50:03;9.10;34.20
6206;DHT22;3136;48.788;9.772;2023-04-24T04:52:29;9.20;36.60
6206;DHT22;3136;48.788;9.772;2023-04-24T04:54:55;9.20;38.90
6206;DHT22;3136;48.788;9.772;2023-04-24T04:57:21;9.20;40.10
6206;DHT22;3136;48.788;9.772;2023-04-24T04:59:46;9.30;40.80
6206;DHT22;3136;48.788;9.772;2023-04-24T05:02:12;9.30;40.90
6206;DHT22;3136;48.788;9.772;2023-04-24T05:04:37;9.30;41.40
6206;DHT22;3136;48.788;9.772;2023-04-24T05:07:03;9.30;42.50
6206;DHT22;3136;48.788;9.772;2023-04-24T05:09:29;9.30;43.60
6206;DHT22;3136;48.788;9.772;2023-04-24T05:11:55;9.40;42.70
6206;DHT22;3136;48.788;9.772;2023-04-24T05:14:21;9.40;41.00
6206;DHT22;3136;48.788;9.772;2023-04-24T05:16:47;9.40;39.60
6206;DHT22;3136;48.788;9.772;2023-04-24T05:19:13;9.50;40.00
6206;DHT22;3136;48.788;9.772;2023-04-24T05:21:39;9.50;34.90
6206;DHT22;3136;48.788;9.772;2023-04-24T05:24:06;9.30;11.10
6206;DHT22;3136;48.788;9.772;2023-04-24T05:26:31;9.20;1.00
6206;DHT22;3136;48.788;9.772;2023-04-24T05:28:57;9.00;1.00
6206;DHT22;3136;48.788;9.772;2023-04-24T05:31:23;9.00;1.00
6206;DHT22;3136;48.788;9.772;2023-04-24T05:33:48;8.90;1.00
6206;DHT22;3136;48.788;9.772;2023-04-24T05:36:14;8.90;1.00
6206;DHT22;3136;48.788;9.772;2023-04-24T05:38:40;8.90;1.00
6206;DHT22;3136;48.788;9.772;2023-04-24T05:41:05;8.90;1.00
6206;DHT22;3136;48.788;9.772;2023-04-24T05:43:31;8.90;1.00
6206;DHT22;3136;48.788;9.772;2023-04-24T05:45:56;8.90;1.00
6206;DHT22;3136;48.788;9.772;2023-04-24T05:48:22;8.90;1.00
6206;DHT22;3136;48.788;9.772;2023-04-24T05:50:48;8.90;1.00
6206;DHT22;3136;48.788;9.772;2023-04-24T05:53:13;9.00;1.00
6206;DHT22;3136;48.788;9.772;2023-04-24T05:55:39;9.00;1.00
6206;DHT22;3136;48.788;9.772;2023-04-24T05:58:05;9.10;1.00
6206;DHT22;3136;48.788;9.772;2023-04-24T06:00:31;9.10;1.00
6206;DHT22;3136;48.788;9.772;2023-04-24T06:02:57;9.10;1.00
6206;DHT22;3136;48.788;9.772;2023-04-24T06:05:24;9.20;1.00
6206;DHT22;3136;48.788;9.772;2023-04-24T06:07:50;9.20;1.00
6206;DHT22;3136;48.788;9.772;2023-04-24T06:10:16;9.30;1.00
6206;DHT22;3136;48.788;9.772;2023-04-24T06:12:41;9.30;1.00
6206;DHT22;3136;48.788;9.772;2023-04-24T06:15:07;9.40;1.00
6206;DHT22;3136;48.788;9.772;2023-04-24T06:17:33;9.30;1.00
6206;DHT22;3136;48.788;9.772;2023-04-24T06:19:58;9.30;1.00
6206;DHT22;3136;48.788;9.772;2023-04-24T06:22:24;9.30;1.00
6206;DHT22;3136;48.788;9.772;2023-04-24T06:24:50;9.20;1.00
6206;DHT22;3136;48.788;9.772;2023-04-24T06:27:15;9.20;1.00
6206;DHT22;3136;48.788;9.772;2023-04-24T06:29:41;9.20;1.00
6206;DHT22;3136;48.788;9.772;2023-04-24T06:32:06;9.20;99.90
6206;DHT22;3136;48.788;9.772;2023-04-24T06:34:33;9.20;99.90
6206;DHT22;3136;48.788;9.772;2023-04-24T06:36:59;9.30;99.90
6206;DHT22;3136;48.788;9.772;2023-04-24T06:39:25;9.30;99.90
6206;DHT22;3136;48.788;9.772;2023-04-24T06:41:50;9.30;99.90
6206;DHT22;3136;48.788;9.772;2023-04-24T06:44:16;9.40;99.90
6206;DHT22;3136;48.788;9.772;2023-04-24T06:46:42;9.50;99.90
6206;DHT22;3136;48.788;9.772;2023-04-24T06:49:07;10.30;99.90
6206;DHT22;3136;48.788;9.772;2023-04-24T06:51:33;9.60;99.90
6206;DHT22;3136;48.788;9.772;2023-04-24T06:53:58;9.70;99.90
6206;DHT22;3136;48.788;9.772;2023-04-24T06:56:25;9.70;99.90
6206;DHT22;3136;48.788;9.772;2023-04-24T06:58:51;9.90;99.90
6206;DHT22;3136;48.788;9.772;2023-04-24T07:01:17;9.90;99.90
6206;DHT22;3136;48.788;9.772;2023-04-24T07:03:42;9.90;1.00
6206;DHT22;3136;48.788;9.772;2023-04-24T07:06:09;9.90;99.90
6206;DHT22;3136;48.788;9.772;2023-04-24T07:08:36;9.80;99.90
6206;DHT22;3136;48.788;9.772;2023-04-24T07:11:02;9.70;1.00
6206;DHT22;3136;48.788;9.772;2023-04-24T07:13:27;9.70;1.00
6206;DHT22;3136;48.788;9.772;2023-04-24T07:15:54;9.60;1.00
6206;DHT22;3136;48.788;9.772;2023-04-24T07:18:21;9.70;2.30
6206;DHT22;3136;48.788;9.772;2023-04-24T07:20:47;9.70;1.00
6206;DHT22;3136;48.788;9.772;2023-04-24T07:23:12;9.70;1.00
6206;DHT22;3136;48.788;9.772;2023-04-24T07:25:38;9.80;8.10
6206;DHT22;3136;48.788;9.772;2023-04-24T07:28:04;9.90;1.00
6206;DHT22;3136;48.788;9.772;2023-04-24T07:30:31;10.00;1.00
6206;DHT22;3136;48.788;9.772;2023-04-24T07:32:58;10.10;99.90
6206;DHT22;3136;48.788;9.772;2023-04-24T07:35:24;10.40;1.00
6206;DHT22;3136;48.788;9.772;2023-04-24T07:37:52;10.40;1.00
6206;DHT22;3136;48.788;9.772;2023-04-24T07:40:18;10.50;1.00
6206;DHT22;3136;48.788;9.772;2023-04-24T07:42:44;10.60;99.90
6206;DHT22;3136;48.788;9.772;2023-04-24T07:45:09;10.60;1.00
6206;DHT22;3136;48.788;9.772;2023-04-24T07:47:35;10.80;1.00
6206;DHT22;3136;48.788;9.772;2023-04-24T07:50:02;10.90;3.90
6206;DHT22;3136;48.788;9.772;2023-04-24T07:52:28;11.10;1.00
6206;DHT22;3136;48.788;9.772;2023-04-24T07:54:54;11.10;99.90
6206;DHT22;3136;48.788;9.772;2023-04-24T07:57:24;11.20;1.00
6206;DHT22;3136;48.788;9.772;2023-04-24T07:59:50;11.30;1.00
6206;DHT22;3136;48.788;9.772;2023-04-24T08:02:16;11.40;1.00
6206;DHT22;3136;48.788;9.772;2023-04-24T08:04:41;11.50;99.90
6206;DHT22;3136;48.788;9.772;2023-04-24T08:07:07;11.40;99.90
6206;DHT22;3136;48.788;9.772;2023-04-24T08:09:33;11.40;99.90
6206;DHT22;3136;48.788;9.772;2023-04-24T08:11:59;11.30;1.00
6206;DHT22;3136;48.788;9.772;2023-04-24T08:14:25;11.20;1.00
6206;DHT22;3136;48.788;9.772;2023-04-24T08:16:54;11.00;1.00
6206;DHT22;3136;48.788;9.772;2023-04-24T08:19:21;10.90;1.00
6206;DHT22;3136;48.788;9.772;2023-04-24T08:21:46;10.50;1.00
6206;DHT22;3136;48.788;9.772;2023-04-24T08:24:12;10.20;1.00
6206;DHT22;3136;48.788;9.772;2023-04-24T08:26:37;10.10;1.00
6206;DHT22;3136;48.788;9.772;2023-04-24T08:29:04;10.00;53.00
6206;DHT22;3136;48.788;9.772;2023-04-24T08:31:29;9.90;1.00
6206;DHT22;3136;48.788;9.772;2023-04-24T08:33:55;9.90;1.00
6206;DHT22;3136;48.788;9.772;2023-04-24T08:36:20;9.90;99.90
6206;DHT22;3136;48.788;9.772;2023-04-24T08:38:46;9.80;99.90
6206;DHT22;3136;48.788;9.772;2023-04-24T08:41:14;9.80;99.90
6206;DHT22;3136;48.788;9.772;2023-04-24T08:43:41;10.00;99.90
6206;DHT22;3136;48.788;9.772;2023-04-24T08:46:07;10.30;99.90
6206;DHT22;3136;48.788;9.772;2023-04-24T08:48:32;10.50;99.90
6206;DHT22;3136;48.788;9.772;2023-04-24T08:50:59;10.80;91.10
6206;DHT22;3136;48.788;9.772;2023-04-24T08:53:25;11.00;1.00
6206;DHT22;3136;48.788;9.772;2023-04-24T08:55:51;11.20;99.90
6206;DHT22;3136;48.788;9.772;2023-04-24T08:58:19;11.30;1.00
6206;DHT22;3136;48.788;9.772;2023-04-24T09:00:45;11.40;99.90
6206;DHT22;3136;48.788;9.772;2023-04-24T09:03:16;11.60;99.90
6206;DHT22;3136;48.788;9.772;2023-04-24T09:05:47;11.50;1.00
6206;DHT22;3136;48.788;9.772;2023-04-24T09:08:13;11.40;99.90
6206;DHT22;3136;48.788;9.772;2023-04-24T09:10:40;10.90;1.00
6206;DHT22;3136;48.788;9.772;2023-04-24T09:13:06;10.70;1.00
6206;DHT22;3136;48.788;9.772;2023-04-24T09:15:34;10.50;1.00
6206;DHT22;3136;48.788;9.772;2023-04-24T09:18:00;10.50;1.00
6206;DHT22;3136;48.788;9.772;2023-04-24T09:20:26;10.60;1.00
6206;DHT22;3136;48.788;9.772;2023-04-24T09:22:57;10.60;1.00
6206;DHT22;3136;48.788;9.772;2023-04-24T09:25:33;10.80;99.90
6206;DHT22;3136;48.788;9.772;2023-04-24T09:28:03;10.80;99.90
6206;DHT22;3136;48.788;9.772;2023-04-24T09:30:29;10.70;1.00
6206;DHT22;3136;48.788;9.772;2023-04-24T09:33:14;11.40;1.00
6206;DHT22;3136;48.788;9.772;2023-04-24T09:35:42;12.90;1.00
6206;DHT22;3136;48.788;9.772;2023-04-24T09:38:08;11.70;1.00
6206;DHT22;3136;48.788;9.772;2023-04-24T09:40:35;12.00;99.90
6206;DHT22;3136;48.788;9.772;2023-04-24T09:43:01;12.20;99.90
6206;DHT22;3136;48.788;9.772;2023-04-24T09:45:35;12.20;99.90
6206;DHT22;3136;48.788;9.772;2023-04-24T09:48:01;12.20;99.90
6206;DHT22;3136;48.788;9.772;2023-04-24T09:50:29;12.20;99.90
6206;DHT22;3136;48.788;9.772;2023-04-24T09:52:59;12.00;99.90
6206;DHT22;3136;48.788;9.772;2023-04-24T09:55:25;11.80;99.90
6206;DHT22;3136;48.788;9.772;2023-04-24T09:58:08;11.60;99.90
6206;DHT22;3136;48.788;9.772;2023-04-24T10:00:34;11.60;99.90
6206;DHT22;3136;48.788;9.772;2023-04-24T10:03:02;11.90;99.90
6206;DHT22;3136;48.788;9.772;2023-04-24T10:05:35;12.30;99.90
6206;DHT22;3136;48.788;9.772;2023-04-24T10:10:44;12.30;99.90
6206;DHT22;3136;48.788;9.772;2023-04-24T10:13:11;12.00;99.90
6206;DHT22;3136;48.788;9.772;2023-04-24T10:15:38;11.80;99.90
6206;DHT22;3136;48.788;9.772;2023-04-24T10:18:05;10.60;99.90
6206;DHT22;3136;48.788;9.772;2023-04-24T10:20:32;11.60;99.90
6206;DHT22;3136;48.788;9.772;2023-04-24T10:23:00;11.80;99.90
6206;DHT22;3136;48.788;9.772;2023-04-24T10:25:29;12.00;99.90
6206;DHT22;3136;48.788;9.772;2023-04-24T10:27:57;12.40;99.90
6206;DHT22;3136;48.788;9.772;2023-04-24T10:30:30;13.20;92.10
6206;DHT22;3136;48.788;9.772;2023-04-24T10:33:03;13.50;83.40
6206;DHT22;3136;48.788;9.772;2023-04-24T10:35:41;13.80;75.30
6206;DHT22;3136;48.788;9.772;2023-04-24T10:38:12;13.90;57.40
6206;DHT22;3136;48.788;9.772;2023-04-24T10:40:38;13.80;59.70
6206;DHT22;3136;48.788;9.772;2023-04-24T10:43:05;14.40;58.60
6206;DHT22;3136;48.788;9.772;2023-04-24T10:45:35;15.50;45.20
6206;DHT22;3136;48.788;9.772;2023-04-24T10:48:02;16.50;35.40
6206;DHT22;3136;48.788;9.772;2023-04-24T10:50:41;16.10;34.20
6206;DHT22;3136;48.788;9.772;2023-04-24T10:53:15;15.40;33.80
6206;DHT22;3136;48.788;9.772;2023-04-24T10:55:42;14.30;36.30
6206;DHT22;3136;48.788;9.772;2023-04-24T10:58:08;13.60;44.00
6206;DHT22;3136;48.788;9.772;2023-04-24T11:00:36;13.10;43.40
6206;DHT22;3136;48.788;9.772;2023-04-24T11:03:05;13.00;50.80
6206;DHT22;3136;48.788;9.772;2023-04-24T11:05:54;13.10;49.00
6206;DHT22;3136;48.788;9.772;2023-04-24T11:08:32;13.70;44.50
6206;DHT22;3136;48.788;9.772;2023-04-24T11:11:03;15.10;36.50
6206;DHT22;3136;48.788;9.772;2023-04-24T11:22:03;16.00;25.70
6206;DHT22;3136;48.788;9.772;2023-04-24T11:24:48;15.40;25.00
6206;DHT22;3136;48.788;9.772;2023-04-24T11:27:17;14.80;25.60
6206;DHT22;3136;48.788;9.772;2023-04-24T11:29:58;13.80;25.30
6206;DHT22;3136;48.788;9.772;2023-04-24T11:37:37;13.10;24.20
6206;DHT22;3136;48.788;9.772;2023-04-24T11:40:04;12.90;26.30
6206;DHT22;3136;48.788;9.772;2023-04-24T11:42:50;12.80;25.80
6206;DHT22;3136;48.788;9.772;2023-04-24T11:45:18;12.60;28.60
6206;DHT22;3136;48.788;9.772;2023-04-24T11:47:44;12.50;30.10
6206;DHT22;3136;48.788;9.772;2023-04-24T11:50:18;12.50;30.00
6206;DHT22;3136;48.788;9.772;2023-04-24T11:52:45;12.40;34.50
6206;DHT22;3136;48.788;9.772;2023-04-24T11:57:42;12.30;35.70
6206;DHT22;3136;48.788;9.772;2023-04-24T12:00:19;12.50;32.50
6206;DHT22;3136;48.788;9.772;2023-04-24T12:02:45;12.70;32.80
6206;DHT22;3136;48.788;9.772;2023-04-24T12:05:26;12.90;29.70
6206;DHT22;3136;48.788;9.772;2023-04-24T12:07:53;13.00;30.20
6206;DHT22;3136;48.788;9.772;2023-04-24T12:10:23;13.00;34.50
6206;DHT22;3136;48.788;9.772;2023-04-24T12:12:50;12.90;29.40
6206;DHT22;3136;48.788;9.772;2023-04-24T12:15:17;12.70;30.60
6206;DHT22;3136;48.788;9.772;2023-04-24T12:17:43;12.50;32.80
6206;DHT22;3136;48.788;9.772;2023-04-24T12:20:09;12.30;38.00
6206;DHT22;3136;48.788;9.772;2023-04-24T12:22:55;12.40;60.10
6206;DHT22;3136;48.788;9.772;2023-04-24T12:25:29;12.90;42.10
6206;DHT22;3136;48.788;9.772;2023-04-24T12:28:11;14.00;25.90
6206;DHT22;3136;48.788;9.772;2023-04-24T12:30:44;14.80;23.80
6206;DHT22;3136;48.788;9.772;2023-04-24T12:33:17;15.10;23.00
6206;DHT22;3136;48.788;9.772;2023-04-24T12:35:43;15.00;23.40
6206;DHT22;3136;48.788;9.772;2023-04-24T12:38:14;14.70;22.00
6206;DHT22;3136;48.788;9.772;2023-04-24T12:40:41;14.40;24.90
6206;DHT22;3136;48.788;9.772;2023-04-24T12:43:15;14.10;26.70
6206;DHT22;3136;48.788;9.772;2023-04-24T12:45:41;13.50;27.70
6206;DHT22;3136;48.788;9.772;2023-04-24T12:48:06;13.10;26.50
6206;DHT22;3136;48.788;9.772;2023-04-24T12:50:32;12.70;29.90
6206;DHT22;3136;48.788;9.772;2023-04-24T12:52:57;12.30;37.40
6206;DHT22;3136;48.788;9.772;2023-04-24T12:55:23;12.00;37.20
6206;DHT22;3136;48.788;9.772;2023-04-24T12:57:48;12.10;42.70
6206;DHT22;3136;48.788;9.772;2023-04-24T13:00:14;13.00;42.00
6206;DHT22;3136;48.788;9.772;2023-04-24T13:02:40;12.80;42.10
6206;DHT22;3136;48.788;9.772;2023-04-24T13:05:06;13.50;27.20
6206;DHT22;3136;48.788;9.772;2023-04-24T13:07:32;14.30;27.40
6206;DHT22;3136;48.788;9.772;2023-04-24T13:09:58;14.50;22.40
6206;DHT22;3136;48.788;9.772;2023-04-24T13:12:24;14.90;22.70
6206;DHT22;3136;48.788;9.772;2023-04-24T13:14:50;14.10;24.60
6206;DHT22;3136;48.788;9.772;2023-04-24T13:17:15;13.80;22.20
6206;DHT22;3136;48.788;9.772;2023-04-24T13:19:42;13.50;27.00
6206;DHT22;3136;48.788;9.772;2023-04-24T13:22:12;13.30;24.40
6206;DHT22;3136;48.788;9.772;2023-04-24T13:24:39;13.20;27.00
6206;DHT22;3136;48.788;9.772;2023-04-24T13:27:08;13.20;28.80
6206;DHT22;3136;48.788;9.772;2023-04-24T13:29:34;14.30;29.10
6206;DHT22;3136;48.788;9.772;2023-04-24T13:32:00;13.10;28.80
6206;DHT22;3136;48.788;9.772;2023-04-24T13:34:26;13.70;30.00
6206;DHT22;3136;48.788;9.772;2023-04-24T13:36:53;14.10;29.00
6206;DHT22;3136;48.788;9.772;2023-04-24T13:39:19;13.00;27.70
6206;DHT22;3136;48.788;9.772;2023-04-24T13:41:45;12.90;27.90
6206;DHT22;3136;48.788;9.772;2023-04-24T13:44:13;12.80;29.40
6206;DHT22;3136;48.788;9.772;2023-04-24T13:46:40;12.70;30.40
6206;DHT22;3136;48.788;9.772;2023-04-24T13:49:05;12.60;31.30
6206;DHT22;3136;48.788;9.772;2023-04-24T13:51:32;12.30;33.30
6206;DHT22;3136;48.788;9.772;2023-04-24T13:53:58;12.10;37.60
6206;DHT22;3136;48.788;9.772;2023-04-24T13:56:25;12.00;39.30
6206;DHT22;3136;48.788;9.772;2023-04-24T13:58:51;11.80;41.00
6206;DHT22;3136;48.788;9.772;2023-04-24T14:01:16;11.70;44.00
6206;DHT22;3136;48.788;9.772;2023-04-24T14:03:42;11.60;51.00
6206;DHT22;3136;48.788;9.772;2023-04-24T14:06:10;11.20;70.70
6206;DHT22;3136;48.788;9.772;2023-04-24T14:08:36;11.00;99.90
6206;DHT22;3136;48.788;9.772;2023-04-24T14:11:02;10.80;99.90
6206;DHT22;3136;48.788;9.772;2023-04-24T14:13:28;10.60;99.90
6206;DHT22;3136;48.788;9.772;2023-04-24T14:15:54;10.70;99.90
6206;DHT22;3136;48.788;9.772;2023-04-24T14:18:19;12.80;99.90
6206;DHT22;3136;48.788;9.772;2023-04-24T14:20:45;12.10;99.90
6206;DHT22;3136;48.788;9.772;2023-04-24T14:23:11;12.90;85.70
6206;DHT22;3136;48.788;9.772;2023-04-24T14:25:37;14.10;53.00
6206;DHT22;3136;48.788;9.772;2023-04-24T14:28:02;15.10;37.50
6206;DHT22;3136;48.788;9.772;2023-04-24T14:30:28;15.30;27.60
6206;DHT22;3136;48.788;9.772;2023-04-24T14:32:53;14.60;28.60
6206;DHT22;3136;48.788;9.772;2023-04-24T14:35:19;14.60;31.60
6206;DHT22;3136;48.788;9.772;2023-04-24T14:37:45;13.90;36.30
6206;DHT22;3136;48.788;9.772;2023-04-24T14:40:11;13.20;42.10
6206;DHT22;3136;48.788;9.772;2023-04-24T14:42:36;12.70;61.60
6206;DHT22;3136;48.788;9.772;2023-04-24T14:45:02;12.30;76.30
6206;DHT22;3136;48.788;9.772;2023-04-24T14:47:28;12.10;96.10
6206;DHT22;3136;48.788;9.772;2023-04-24T14:49:54;11.60;99.90
6206;DHT22;3136;48.788;9.772;2023-04-24T14:52:20;10.70;99.90
6206;DHT22;3136;48.788;9.772;2023-04-24T14:54:46;9.30;99.90
6206;DHT22;3136;48.788;9.772;2023-04-24T14:57:12;9.60;99.90
6206;DHT22;3136;48.788;9.772;2023-04-24T14:59:37;9.30;1.00
6206;DHT22;3136;48.788;9.772;2023-04-24T15:02:03;9.20;1.00
6206;DHT22;3136;48.788;9.772;2023-04-24T15:04:29;9.20;1.00
6206;DHT22;3136;48.788;9.772;2023-04-24T15:06:56;9.40;99.90
6206;DHT22;3136;48.788;9.772;2023-04-24T15:09:23;9.90;99.90
6206;DHT22;3136;48.788;9.772;2023-04-24T15:11:49;10.60;83.20
6206;DHT22;3136;48.788;9.772;2023-04-24T15:14:16;11.90;1.00
6206;DHT22;3136;48.788;9.772;2023-04-24T15:16:41;12.70;99.90
6206;DHT22;3136;48.788;9.772;2023-04-24T15:19:07;12.70;99.90
6206;DHT22;3136;48.788;9.772;2023-04-24T15:21:33;12.50;99.90
6206;DHT22;3136;48.788;9.772;2023-04-24T15:23:58;12.40;99.90
6206;DHT22;3136;48.788;9.772;2023-04-24T15:26:24;12.10;99.90
6206;DHT22;3136;48.788;9.772;2023-04-24T15:28:51;11.90;99.90
6206;DHT22;3136;48.788;9.772;2023-04-24T15:31:17;11.70;99.90
6206;DHT22;3136;48.788;9.772;2023-04-24T15:33:43;11.60;99.90
6206;DHT22;3136;48.788;9.772;2023-04-24T15:36:09;11.80;99.90
6206;DHT22;3136;48.788;9.772;2023-04-24T15:38:35;13.30;99.90
6206;DHT22;3136;48.788;9.772;2023-04-24T15:41:00;12.80;97.60
6206;DHT22;3136;48.788;9.772;2023-04-24T15:43:26;13.10;73.80
6206;DHT22;3136;48.788;9.772;2023-04-24T15:45:51;13.20;59.60
6206;DHT22;3136;48.788;9.772;2023-04-24T15:48:18;13.00;74.60
6206;DHT22;3136;48.788;9.772;2023-04-24T15:50:44;13.20;66.60
6206;DHT22;3136;48.788;9.772;2023-04-24T15:53:09;13.00;54.90
6206;DHT22;3136;48.788;9.772;2023-04-24T15:55:35;12.90;47.60
6206;DHT22;3136;48.788;9.772;2023-04-24T15:58:02;12.90;51.10
6206;DHT22;3136;48.788;9.772;2023-04-24T16:00:27;12.80;49.40
6206;DHT22;3136;48.788;9.772;2023-04-24T16:02:59;12.60;45.30
6206;DHT22;3136;48.788;9.772;2023-04-24T16:05:25;12.50;54.20
6206;DHT22;3136;48.788;9.772;2023-04-24T16:07:50;12.30;67.30
6206;DHT22;3136;48.788;9.772;2023-04-24T16:10:16;12.20;71.00
6206;DHT22;3136;48.788;9.772;2023-04-24T16:12:41;12.50;79.70
6206;DHT22;3136;48.788;9.772;2023-04-24T16:15:07;12.00;65.00
6206;DHT22;3136;48.788;9.772;2023-04-24T16:17:33;12.00;70.50
6206;DHT22;3136;48.788;9.772;2023-04-24T16:19:58;11.90;85.10
6206;DHT22;3136;48.788;9.772;2023-04-24T16:22:24;11.90;83.90
6206;DHT22;3136;48.788;9.772;2023-04-24T16:24:49;12.00;93.30
6206;DHT22;3136;48.788;9.772;2023-04-24T16:27:15;11.80;79.70
6206;DHT22;3136;48.788;9.772;2023-04-24T16:29:41;11.70;82.00